Wetterdaten: Woche 05.04.10 - 11.04.10 (KW14)
Datum Zeit Temp. A. Feuchte A. Luftdruck Regen Wind Richtung Taupunkt Windchill Windben
05.04.2010 00:00 6,3 C 79 % 1020,5 hPa 0,0 l/m 0,0 km/h W-SW 2,9 C 6,3 C 0,0 km/h
05.04.2010 01:00 6,1 C 81 % 1021,3 hPa 0,0 l/m 0,0 km/h SW 3,1 C 6,1 C 0,0 km/h
05.04.2010 02:00 5,3 C 87 % 1022,1 hPa 0,7 l/m 13,6 km/h SW 3,3 C 0,2 C 7,6 km/h
05.04.2010 03:00 4,9 C 88 % 1022,6 hPa 0,0 l/m 0,0 km/h S 3,1 C 4,9 C 0,0 km/h
05.04.2010 04:00 4,8 C 89 % 1023,3 hPa 0,4 l/m 1,9 km/h S 3,1 C 4,8 C 1,1 km/h
05.04.2010 05:00 4,6 C 90 % 1023,7 hPa 0,4 l/m 0,0 km/h S 3,1 C 4,6 C 0,0 km/h
05.04.2010 06:00 4,7 C 90 % 1024,4 hPa 0,0 l/m 0,0 km/h S 3,2 C 4,7 C 0,0 km/h
05.04.2010 07:00 5,1 C 91 % 1025,1 hPa 0,0 l/m 0,0 km/h W-SW 3,8 C 5,1 C 0,0 km/h
05.04.2010 08:00 6,1 C 87 % 1026,1 hPa 0,0 l/m 20,7 km/h W 4,1 C -2,0 C 11,5 km/h
05.04.2010 09:00 10,9 C 71 % 1026,7 hPa 0,0 l/m 1,3 km/h SW 5,9 C 10,9 C 0,7 km/h
05.04.2010 10:00 12,6 C 63 % 1027,1 hPa 0,0 l/m 7,8 km/h S-SO 5,7 C 11,7 C 4,3 km/h
05.04.2010 11:00 15,8 C 48 % 1027,5 hPa 0,0 l/m 19,4 km/h SW 4,8 C 10,9 C 10,8 km/h
05.04.2010 12:00 15,0 C 46 % 1027,2 hPa 0,0 l/m 1,3 km/h NO 3,5 C 15,0 C 0,7 km/h
05.04.2010 13:00 13,8 C 45 % 1027,2 hPa 0,0 l/m 1,9 km/h N 2,1 C 13,8 C 1,1 km/h
05.04.2010 14:00 12,2 C 50 % 1027,1 hPa 0,0 l/m 0,0 km/h W 2,1 C 12,2 C 0,0 km/h
05.04.2010 15:00 15,3 C 43 % 1026,7 hPa 0,0 l/m 3,9 km/h S 2,8 C 15,3 C 2,2 km/h
05.04.2010 16:00 17,3 C 39 % 1026,2 hPa 0,0 l/m 8,4 km/h SW 3,2 C 16,3 C 4,7 km/h
05.04.2010 17:00 16,8 C 38 % 1026,1 hPa 0,0 l/m 13,0 km/h W 2,4 C 14,0 C 7,2 km/h
05.04.2010 18:00 15,5 C 38 % 1026,0 hPa 0,0 l/m 3,2 km/h W-NW 1,3 C 15,5 C 1,8 km/h
05.04.2010 19:00 10,8 C 45 % 1026,1 hPa 0,0 l/m 0,0 km/h O-SO -0,6 C 10,8 C 0,0 km/h
05.04.2010 20:00 5,7 C 65 % 1026,5 hPa 0,0 l/m 0,0 km/h SO -0,4 C 5,7 C 0,0 km/h
05.04.2010 21:00 4,1 C 72 % 1026,4 hPa 0,0 l/m 0,0 km/h SO -0,5 C 4,1 C 0,0 km/h
05.04.2010 22:00 3,3 C 78 % 1026,2 hPa 0,0 l/m 0,0 km/h SO -0,2 C 3,3 C 0,0 km/h
05.04.2010 23:00 3,1 C 81 % 1025,9 hPa 0,0 l/m 0,0 km/h SO 0,2 C 3,1 C 0,0 km/h
06.04.2010 00:00 3,1 C 81 % 1025,7 hPa 0,0 l/m 0,0 km/h SO 0,2 C 3,1 C 0,0 km/h
06.04.2010 01:00 3,1 C 81 % 1025,6 hPa 0,0 l/m 0,0 km/h SO 0,2 C 3,1 C 0,0 km/h
06.04.2010 02:00 1,6 C 84 % 1025,3 hPa 0,0 l/m 0,0 km/h O -0,8 C 1,6 C 0,0 km/h
06.04.2010 03:00 0,8 C 86 % 1025,6 hPa 0,0 l/m 0,0 km/h O -1,3 C 0,8 C 0,0 km/h
06.04.2010 04:00 0,7 C 87 % 1025,3 hPa 0,0 l/m 0,0 km/h O-SO -1,2 C 0,7 C 0,0 km/h
06.04.2010 05:00 0,3 C 87 % 1025,1 hPa 0,0 l/m 0,0 km/h O-NO -1,6 C 0,3 C 0,0 km/h
06.04.2010 06:00 0,3 C 87 % 1024,8 hPa 0,0 l/m 0,0 km/h N-NO -1,6 C 0,3 C 0,0 km/h
06.04.2010 07:00 0,3 C 89 % 1024,6 hPa 0,0 l/m 0,0 km/h NW -1,3 C 0,3 C 0,0 km/h
06.04.2010 08:00 6,5 C 78 % 1024,3 hPa 0,0 l/m 0,0 km/h NW 2,9 C 6,5 C 0,0 km/h
06.04.2010 09:00 6,5 C 78 % 1023,7 hPa 0,0 l/m 0,0 km/h N-NO 2,9 C 6,5 C 0,0 km/h
06.04.2010 10:00 13,8 C 53 % 1023,4 hPa 0,0 l/m 3,9 km/h W 4,4 C 13,8 C 2,2 km/h
06.04.2010 11:00 16,4 C 50 % 1022,6 hPa 0,0 l/m 8,4 km/h N-NW 6,0 C 15,4 C 4,7 km/h
06.04.2010 12:00 17,3 C 47 % 1021,5 hPa 0,0 l/m 0,0 km/h S-SW 5,9 C 17,3 C 0,0 km/h
06.04.2010 13:00 18,1 C 43 % 1020,5 hPa 0,0 l/m 0,0 km/h SW 5,3 C 18,1 C 0,0 km/h
06.04.2010 14:00 18,1 C 43 % 1019,3 hPa 0,0 l/m 0,0 km/h W-SW 5,3 C 18,1 C 0,0 km/h
06.04.2010 15:00 23,6 C 38 % 1018,5 hPa 0,0 l/m 18,1 km/h N 8,4 C 21,1 C 10,1 km/h
06.04.2010 16:00 25,6 C 32 % 1017,5 hPa 0,0 l/m 0,0 km/h NW 7,7 C 25,6 C 0,0 km/h
06.04.2010 17:00 25,5 C 33 % 1016,8 hPa 0,0 l/m 7,1 km/h W-NW 8,0 C 25,3 C 4,0 km/h
06.04.2010 18:00 22,9 C 35 % 1016,5 hPa 0,0 l/m 0,6 km/h W-NW 6,6 C 22,9 C 0,4 km/h
06.04.2010 19:00 15,8 C 49 % 1016,4 hPa 0,0 l/m 0,0 km/h O-SO 5,1 C 15,8 C 0,0 km/h
06.04.2010 20:00 10,2 C 69 % 1016,4 hPa 0,0 l/m 0,0 km/h SO 4,8 C 10,2 C 0,0 km/h
06.04.2010 21:00 8,9 C 74 % 1016,4 hPa 0,0 l/m 0,0 km/h O-NO 4,5 C 8,9 C 0,0 km/h
06.04.2010 22:00 6,8 C 77 % 1016,5 hPa 0,0 l/m 0,0 km/h O-NO 3,1 C 6,8 C 0,0 km/h
06.04.2010 23:00 5,6 C 77 % 1016,7 hPa 0,0 l/m 0,0 km/h NO 1,9 C 5,6 C 0,0 km/h
07.04.2010 00:00 4,6 C 81 % 1016,7 hPa 0,0 l/m 0,0 km/h NO 1,6 C 4,6 C 0,0 km/h
07.04.2010 01:00 5,4 C 77 % 1016,6 hPa 0,0 l/m 0,0 km/h O-NO 1,7 C 5,4 C 0,0 km/h
07.04.2010 02:00 5,2 C 77 % 1016,3 hPa 0,0 l/m 0,0 km/h NO 1,5 C 5,2 C 0,0 km/h
07.04.2010 03:00 3,8 C 80 % 1016,3 hPa 0,0 l/m 0,0 km/h O-NO 0,7 C 3,8 C 0,0 km/h
07.04.2010 04:00 3,4 C 83 % 1016,4 hPa 0,0 l/m 0,0 km/h O-NO 0,8 C 3,4 C 0,0 km/h
07.04.2010 05:00 3,8 C 82 % 1016,6 hPa 0,0 l/m 1,9 km/h O-NO 1,0 C 3,8 C 1,1 km/h
07.04.2010 06:00 2,6 C 84 % 1016,8 hPa 0,0 l/m 0,0 km/h O-SO 0,2 C 2,6 C 0,0 km/h
07.04.2010 07:00 3,6 C 84 % 1017,0 hPa 0,0 l/m 0,0 km/h N 1,2 C 3,6 C 0,0 km/h
07.04.2010 08:00 10,3 C 73 % 1017,4 hPa 0,0 l/m 0,0 km/h O-SO 5,7 C 10,3 C 0,0 km/h
07.04.2010 09:00 17,9 C 52 % 1017,2 hPa 0,0 l/m 0,0 km/h W-NW 7,9 C 17,9 C 0,0 km/h
07.04.2010 10:00 19,3 C 45 % 1017,0 hPa 0,0 l/m 0,0 km/h W-SW 7,1 C 19,3 C 0,0 km/h
07.04.2010 11:00 21,5 C 42 % 1016,7 hPa 0,0 l/m 1,3 km/h S-SW 8,0 C 21,5 C 0,7 km/h
07.04.2010 12:00 23,2 C 39 % 1016,3 hPa 0,0 l/m 6,5 km/h S-SW 8,5 C 23,2 C 3,6 km/h
07.04.2010 13:00 22,9 C 37 % 1015,7 hPa 0,0 l/m 9,7 km/h W 7,4 C 21,9 C 5,4 km/h
07.04.2010 14:00 23,8 C 32 % 1015,3 hPa 0,0 l/m 9,1 km/h SW 6,1 C 23,1 C 5,0 km/h
07.04.2010 15:00 27,1 C 28 % 1014,8 hPa 0,0 l/m 0,0 km/h W-SW 7,0 C 27,1 C 0,0 km/h
07.04.2010 16:00 28,2 C 26 % 1014,4 hPa 0,0 l/m 14,9 km/h W-SW 6,9 C 27,2 C 8,3 km/h
07.04.2010 17:00 28,7 C 26 % 1014,2 hPa 0,0 l/m 3,2 km/h W 7,3 C 28,7 C 1,8 km/h
07.04.2010 18:00 19,4 C 36 % 1014,3 hPa 0,0 l/m 0,0 km/h S-SW 3,9 C 19,4 C 0,0 km/h
07.04.2010 19:00 15,5 C 44 % 1014,9 hPa 0,0 l/m 0,0 km/h NO 3,3 C 15,5 C 0,0 km/h
07.04.2010 20:00 12,7 C 52 % 1015,9 hPa 0,0 l/m 0,0 km/h S-SO 3,1 C 12,7 C 0,0 km/h
07.04.2010 21:00 11,6 C 60 % 1016,7 hPa 0,0 l/m 0,0 km/h O-NO 4,1 C 11,6 C 0,0 km/h
07.04.2010 22:00 9,9 C 65 % 1017,3 hPa 0,0 l/m 0,0 km/h O 3,6 C 9,9 C 0,0 km/h
07.04.2010 23:00 9,2 C 67 % 1017,8 hPa 0,0 l/m 3,2 km/h NO 3,4 C 9,2 C 1,8 km/h
08.04.2010 00:00 8,6 C 70 % 1018,2 hPa 0,0 l/m 0,0 km/h NO 3,4 C 8,6 C 0,0 km/h
08.04.2010 01:00 7,6 C 73 % 1018,5 hPa 0,0 l/m 0,0 km/h O 3,1 C 7,6 C 0,0 km/h
08.04.2010 02:00 6,8 C 76 % 1018,7 hPa 0,0 l/m 0,0 km/h S-SO 2,9 C 6,8 C 0,0 km/h
08.04.2010 03:00 6,9 C 78 % 1018,9 hPa 0,0 l/m 0,0 km/h SO 3,3 C 6,9 C 0,0 km/h
08.04.2010 04:00 6,6 C 81 % 1019,1 hPa 0,0 l/m 0,0 km/h SO 3,6 C 6,6 C 0,0 km/h
08.04.2010 05:00 6,2 C 83 % 1019,4 hPa 0,0 l/m 0,0 km/h NO 3,5 C 6,2 C 0,0 km/h
08.04.2010 06:00 5,6 C 84 % 1019,9 hPa 0,0 l/m 0,0 km/h O-SO 3,1 C 5,6 C 0,0 km/h
08.04.2010 07:00 6,2 C 85 % 1020,5 hPa 0,0 l/m 0,0 km/h SO 3,9 C 6,2 C 0,0 km/h
08.04.2010 08:00 9,4 C 80 % 1021,1 hPa 0,0 l/m 0,0 km/h SO 6,1 C 9,4 C 0,0 km/h
08.04.2010 09:00 11,9 C 74 % 1021,5 hPa 0,0 l/m 0,0 km/h W-SW 7,4 C 11,9 C 0,0 km/h
08.04.2010 10:00 15,3 C 63 % 1021,7 hPa 0,0 l/m 0,0 km/h N-NW 8,3 C 15,3 C 0,0 km/h
08.04.2010 11:00 17,4 C 55 % 1021,9 hPa 0,0 l/m 0,0 km/h N-NW 8,3 C 17,4 C 0,0 km/h
08.04.2010 12:00 16,8 C 59 % 1022,0 hPa 0,0 l/m 0,0 km/h O-NO 8,7 C 16,8 C 0,0 km/h
08.04.2010 13:00 15,8 C 61 % 1022,2 hPa 0,0 l/m 0,0 km/h NO 8,3 C 15,8 C 0,0 km/h
08.04.2010 14:00 18,0 C 58 % 1022,2 hPa 0,0 l/m 0,0 km/h NO 9,6 C 18,0 C 0,0 km/h
08.04.2010 15:00 19,2 C 53 % 1022,1 hPa 0,0 l/m 0,0 km/h NO 9,4 C 19,2 C 0,0 km/h
08.04.2010 16:00 17,6 C 56 % 1022,1 hPa 0,0 l/m 0,0 km/h N-NO 8,7 C 17,6 C 0,0 km/h
08.04.2010 17:00 16,9 C 58 % 1022,2 hPa 0,0 l/m 4,5 km/h N-NO 8,6 C 16,9 C 2,5 km/h
08.04.2010 18:00 15,0 C 65 % 1022,8 hPa 0,0 l/m 0,0 km/h NO 8,5 C 15,0 C 0,0 km/h
08.04.2010 19:00 13,9 C 69 % 1023,6 hPa 0,0 l/m 3,2 km/h N-NO 8,3 C 13,9 C 1,8 km/h
08.04.2010 20:00 12,9 C 72 % 1024,2 hPa 0,0 l/m 0,0 km/h N-NO 8,0 C 12,9 C 0,0 km/h
08.04.2010 21:00 12,6 C 74 % 1024,7 hPa 0,0 l/m 0,0 km/h N-NO 8,1 C 12,6 C 0,0 km/h
08.04.2010 22:00 11,1 C 79 % 1024,9 hPa 0,0 l/m 0,0 km/h O-SO 7,6 C 11,1 C 0,0 km/h
08.04.2010 23:00 9,2 C 84 % 1025,3 hPa 0,0 l/m 0,0 km/h NO 6,6 C 9,2 C 0,0 km/h
09.04.2010 00:00 8,1 C 86 % 1025,4 hPa 0,0 l/m 0,0 km/h NO 5,9 C 8,1 C 0,0 km/h
09.04.2010 01:00 7,0 C 89 % 1025,5 hPa 0,0 l/m 0,0 km/h O-SO 5,3 C 7,0 C 0,0 km/h
09.04.2010 02:00 7,1 C 90 % 1025,6 hPa 0,0 l/m 0,0 km/h SO 5,6 C 7,1 C 0,0 km/h
09.04.2010 03:00 7,2 C 91 % 1025,8 hPa 0,0 l/m 0,0 km/h O-SO 5,8 C 7,2 C 0,0 km/h
09.04.2010 04:00 5,9 C 91 % 1026,0 hPa 0,0 l/m 0,0 km/h S-SO 4,5 C 5,9 C 0,0 km/h
09.04.2010 05:00 5,8 C 91 % 1026,1 hPa 0,0 l/m 0,0 km/h S-SO 4,4 C 5,8 C 0,0 km/h
09.04.2010 06:00 5,9 C 91 % 1026,4 hPa 0,0 l/m 0,0 km/h S 4,5 C 5,9 C 0,0 km/h
09.04.2010 07:00 6,9 C 92 % 1027,0 hPa 0,0 l/m 0,0 km/h S-SO 5,7 C 6,9 C 0,0 km/h
09.04.2010 08:00 9,8 C 93 % 1027,2 hPa 0,0 l/m 0,0 km/h W-SW 8,7 C 9,8 C 0,0 km/h
09.04.2010 09:00 13,8 C 76 % 1027,3 hPa 0,0 l/m 1,3 km/h NO 9,6 C 13,8 C 0,7 km/h
09.04.2010 10:00 15,9 C 63 % 1027,7 hPa 0,0 l/m 5,8 km/h O-SO 8,9 C 15,9 C 3,2 km/h
09.04.2010 11:00 16,5 C 59 % 1027,6 hPa 0,0 l/m 0,0 km/h O-SO 8,5 C 16,5 C 0,0 km/h
09.04.2010 12:00 17,6 C 53 % 1027,4 hPa 0,0 l/m 6,5 km/h N 7,9 C 17,6 C 3,6 km/h
09.04.2010 13:00 18,4 C 52 % 1026,9 hPa 0,0 l/m 28,5 km/h O-SO 8,4 C 12,7 C 15,8 km/h
09.04.2010 14:00 19,3 C 52 % 1026,5 hPa 0,0 l/m 0,0 km/h O-NO 9,2 C 19,3 C 0,0 km/h
09.04.2010 15:00 20,6 C 49 % 1026,3 hPa 0,0 l/m 1,3 km/h N-NO 9,5 C 20,6 C 0,7 km/h
09.04.2010 16:00 21,1 C 44 % 1026,2 hPa 0,0 l/m 29,2 km/h O-SO 8,4 C 16,4 C 16,2 km/h
09.04.2010 17:00 19,6 C 47 % 1026,3 hPa 0,0 l/m 1,3 km/h O-NO 8,0 C 19,6 C 0,7 km/h
09.04.2010 18:00 17,0 C 50 % 1026,6 hPa 0,0 l/m 0,0 km/h O-NO 6,5 C 17,0 C 0,0 km/h
09.04.2010 19:00 12,7 C 60 % 1027,0 hPa 0,0 l/m 0,0 km/h NO 5,1 C 12,7 C 0,0 km/h
09.04.2010 20:00 9,3 C 73 % 1027,5 hPa 0,0 l/m 0,0 km/h O-NO 4,7 C 9,3 C 0,0 km/h
09.04.2010 21:00 7,9 C 79 % 1027,8 hPa 0,0 l/m 0,0 km/h O-SO 4,5 C 7,9 C 0,0 km/h
09.04.2010 22:00 6,9 C 83 % 1027,9 hPa 0,0 l/m 0,0 km/h SO 4,2 C 6,9 C 0,0 km/h
09.04.2010 23:00 6,7 C 86 % 1027,9 hPa 0,0 l/m 6,5 km/h O-SO 4,5 C 6,6 C 3,6 km/h
10.04.2010 00:00 5,5 C 87 % 1027,7 hPa 0,0 l/m 0,0 km/h O-SO 3,5 C 5,5 C 0,0 km/h
10.04.2010 01:00 5,6 C 88 % 1027,3 hPa 0,0 l/m 0,0 km/h O 3,8 C 5,6 C 0,0 km/h
10.04.2010 02:00 5,1 C 86 % 1027,2 hPa 0,0 l/m 0,0 km/h W 3,0 C 5,1 C 0,0 km/h
10.04.2010 03:00 4,3 C 86 % 1026,8 hPa 0,0 l/m 0,0 km/h SO 2,2 C 4,3 C 0,0 km/h
10.04.2010 04:00 3,3 C 88 % 1026,7 hPa 0,0 l/m 0,0 km/h NO 1,5 C 3,3 C 0,0 km/h
10.04.2010 05:00 2,7 C 89 % 1026,7 hPa 0,0 l/m 0,0 km/h NO 1,1 C 2,7 C 0,0 km/h
10.04.2010 06:00 3,1 C 90 % 1026,6 hPa 0,0 l/m 0,0 km/h NO 1,6 C 3,1 C 0,0 km/h
10.04.2010 07:00 3,4 C 89 % 1026,7 hPa 0,0 l/m 0,0 km/h W-NW 1,8 C 3,4 C 0,0 km/h
10.04.2010 08:00 9,4 C 81 % 1026,8 hPa 0,0 l/m 0,0 km/h W-SW 6,3 C 9,4 C 0,0 km/h
10.04.2010 09:00 15,2 C 61 % 1026,6 hPa 0,0 l/m 0,0 km/h W 7,7 C 15,2 C 0,0 km/h
10.04.2010 10:00 12,9 C 66 % 1026,0 hPa 0,0 l/m 1,3 km/h W 6,7 C 12,9 C 0,7 km/h
10.04.2010 11:00 16,3 C 59 % 1025,6 hPa 0,0 l/m 4,5 km/h W 8,3 C 16,3 C 2,5 km/h
10.04.2010 12:00 20,3 C 43 % 1024,7 hPa 0,0 l/m 0,0 km/h W-NW 7,3 C 20,3 C 0,0 km/h
10.04.2010 13:00 18,7 C 39 % 1024,1 hPa 0,0 l/m 16,8 km/h N-NO 4,5 C 15,2 C 9,4 km/h
10.04.2010 14:00 17,4 C 44 % 1023,6 hPa 0,0 l/m 11,0 km/h NO 5,0 C 15,4 C 6,1 km/h
10.04.2010 15:00 17,6 C 40 % 1023,0 hPa 0,0 l/m 3,2 km/h O-SO 3,8 C 17,6 C 1,8 km/h
10.04.2010 16:00 20,4 C 34 % 1022,4 hPa 0,0 l/m 8,4 km/h N 4,0 C 19,6 C 4,7 km/h
10.04.2010 17:00 18,9 C 35 % 1021,8 hPa 0,0 l/m 25,9 km/h N-NO 3,1 C 13,8 C 14,4 km/h
10.04.2010 18:00 17,4 C 36 % 1021,6 hPa 0,0 l/m 9,1 km/h N-NO 2,2 C 16,1 C 5,0 km/h
10.04.2010 19:00 12,9 C 46 % 1021,5 hPa 0,0 l/m 1,9 km/h O-NO 1,6 C 12,9 C 1,1 km/h
10.04.2010 20:00 9,3 C 58 % 1021,7 hPa 0,0 l/m 0,0 km/h N-NO 1,5 C 9,3 C 0,0 km/h
10.04.2010 21:00 8,5 C 61 % 1021,5 hPa 0,0 l/m 0,0 km/h NO 1,4 C 8,5 C 0,0 km/h
10.04.2010 22:00 8,4 C 60 % 1021,4 hPa 0,0 l/m 0,0 km/h O-NO 1,1 C 8,4 C 0,0 km/h
10.04.2010 23:00 8,1 C 57 % 1021,2 hPa 0,0 l/m 3,2 km/h N-NO 0,1 C 8,1 C 1,8 km/h
11.04.2010 00:00 6,8 C 61 % 1021,1 hPa 0,0 l/m 6,5 km/h N-NO -0,2 C 6,7 C 3,6 km/h
11.04.2010 01:00 5,9 C 62 % 1020,9 hPa 0,0 l/m 0,0 km/h NO -0,8 C 5,9 C 0,0 km/h
11.04.2010 02:00 4,2 C 65 % 1020,7 hPa 0,0 l/m 2,6 km/h N-NO -1,8 C 4,2 C 1,4 km/h
11.04.2010 03:00 1,9 C 71 % 1020,3 hPa 0,0 l/m 0,0 km/h NO -2,8 C 1,9 C 0,0 km/h
11.04.2010 04:00 0,9 C 75 % 1020,1 hPa 0,0 l/m 0,0 km/h O-NO -3,0 C 0,9 C 0,0 km/h
11.04.2010 05:00 -0,2 C 81 % 1020,3 hPa 0,0 l/m 0,0 km/h NO -3,1 C -0,2 C 0,0 km/h
11.04.2010 06:00 0,2 C 80 % 1019,8 hPa 0,0 l/m 0,0 km/h O-NO -2,8 C 0,2 C 0,0 km/h
11.04.2010 07:00 1,6 C 81 % 1019,4 hPa 0,0 l/m 0,0 km/h S-SO -1,3 C 1,6 C 0,0 km/h
11.04.2010 08:00 7,3 C 70 % 1018,9 hPa 0,0 l/m 2,6 km/h W 2,2 C 7,3 C 1,4 km/h
11.04.2010 09:00 13,3 C 51 % 1018,4 hPa 0,0 l/m 24,0 km/h N-NO 3,4 C 6,5 C 13,3 km/h
11.04.2010 10:00 13,6 C 46 % 1017,8 hPa 0,0 l/m 9,7 km/h NO 2,2 C 11,7 C 5,4 km/h
11.04.2010 11:00 13,6 C 43 % 1017,4 hPa 0,0 l/m 1,9 km/h O-SO 1,3 C 13,6 C 1,1 km/h
11.04.2010 12:00 11,9 C 48 % 1016,8 hPa 0,0 l/m 5,2 km/h NO 1,2 C 11,9 C 2,9 km/h
11.04.2010 13:00 12,1 C 47 % 1016,3 hPa 0,0 l/m 4,5 km/h O-SO 1,1 C 12,1 C 2,5 km/h
11.04.2010 14:00 12,9 C 48 % 1015,8 hPa 0,0 l/m 12,3 km/h O-NO 2,2 C 9,7 C 6,8 km/h
11.04.2010 15:00 11,9 C 48 % 1015,5 hPa 0,0 l/m 1,9 km/h O-NO 1,2 C 11,9 C 1,1 km/h
11.04.2010 16:00 12,4 C 54 % 1015,6 hPa 0,0 l/m 1,3 km/h N-NO 3,4 C 12,4 C 0,7 km/h
11.04.2010 17:00 13,4 C 53 % 1015,3 hPa 0,0 l/m 0,0 km/h O 4,0 C 13,4 C 0,0 km/h
11.04.2010 18:00 7,4 C 67 % 1015,4 hPa 0,4 l/m 0,0 km/h NO 1,7 C 7,4 C 0,0 km/h
11.04.2010 19:00 5,7 C 71 % 1015,2 hPa 0,0 l/m 0,0 km/h O-NO 0,9 C 5,7 C 0,0 km/h
11.04.2010 20:00 4,8 C 74 % 1015,8 hPa 0,0 l/m 0,0 km/h N-NO 0,6 C 4,8 C 0,0 km/h
11.04.2010 21:00 3,9 C 77 % 1016,3 hPa 0,0 l/m 3,9 km/h O-NO 0,2 C 3,9 C 2,2 km/h
11.04.2010 22:00 4,2 C 78 % 1016,2 hPa 0,0 l/m 0,6 km/h NO 0,7 C 4,2 C 0,4 km/h
11.04.2010 23:00 3,4 C 79 % 1015,9 hPa 0,0 l/m 0,0 km/h N-NW 0,1 C 3,4 C 0,0 km/h
Min-Datum _ 11.04.10 07.04.10 07.04.10 - 05.04.10 - 11.04.10 05.04.10 05.04.10
_ Min-Zeit 05:53 16:53 17:53 - 00:53 - 05:53 08:53 00:53
Minimum _ -0,2 C 26 % 1014,2 hPa - 0,0 km/h - -3,1 C -2,0 C 0,0 km/h
Max-Datum _ 07.04.10 09.04.10 09.04.10 05.04.10 09.04.10 - 09.04.10 07.04.10 09.04.10
_ Max-Zeit 17:53 08:53 22:53 02:53 16:53 - 09:53 17:53 16:53
Maximum _ 28,7 C 93 % 1027,9 hPa 0,7 l/m 29,2 km/h
O-SO
- 9,6 C 28,7 C 16,2 km/h
O-SO
Durchschnitt _ 10,8 C 66 % 1021,9 hPa #1,8 l/m 2,6 km/h NO 3,9 C 10,4 C 1,4 km/h